Time;durP1;ratioP1;P1;durP2;ratioP2;P2;SDS_P1;SDS_P2;PMS_P1;PMS_P2;Temp;Humidity;BMP_temperature;BMP_pressure;BME280_temperature;BME280_humidity;BME280_pressure;Samples;Min_cycle;Max_cycle;Signal;HPM_P1;HPM_P2
2021/12/07 00:02:54;;;;;;;1.98;0.90;;;15.80;65.00;;;;;;10578512;28;20106;-54
2021/12/07 00:07:55;;;;;;;1.80;1.00;;;15.80;64.90;;;;;;10560271;28;20024;-54
2021/12/07 00:12:56;;;;;;;2.83;1.20;;;15.80;64.90;;;;;;10560073;28;20036;-54
2021/12/07 00:17:58;;;;;;;1.88;1.05;;;15.80;65.00;;;;;;10578522;28;20031;-54
2021/12/07 00:23:06;;;;;;;1.80;1.00;;;15.80;64.90;;;;;;10578305;28;20032;-52
2021/12/07 00:28:06;;;;;;;1.40;0.90;;;15.80;64.80;;;;;;10559605;28;20032;-53
2021/12/07 00:38:14;;;;;;;1.48;1.02;;;15.80;64.80;;;;;;10559933;28;20027;-54
2021/12/07 00:43:16;;;;;;;2.60;1.00;;;15.70;64.70;;;;;;10564443;28;20040;-54
2021/12/07 00:48:17;;;;;;;1.67;1.02;;;15.80;64.90;;;;;;10559629;28;20130;-54
2021/12/07 00:53:18;;;;;;;1.95;0.95;;;15.80;64.70;;;;;;10559783;28;20031;-53
2021/12/07 00:58:23;;;;;;;1.75;1.17;;;15.80;64.70;;;;;;10563216;28;20122;-55
2021/12/07 01:03:26;;;;;;;1.23;0.82;;;15.70;64.70;;;;;;10567364;28;20364;-54
2021/12/07 01:09:18;;;;;;;1.98;1.05;;;15.80;64.60;;;;;;10585119;28;20044;-55
2021/12/07 01:24:41;;;;;;;1.55;0.98;;;15.80;64.40;;;;;;10569256;28;20437;-53
2021/12/07 01:29:45;;;;;;;1.90;0.98;;;15.90;64.20;;;;;;10584309;28;20387;-55
2021/12/07 01:50:29;;;;;;;1.13;0.68;;;15.90;63.90;;;;;;10568296;28;20043;-53
2021/12/07 02:00:56;;;;;;;1.48;0.80;;;15.90;63.70;;;;;;10567851;28;20102;-54
2021/12/07 02:05:57;;;;;;;3.20;1.27;;;15.90;63.60;;;;;;10583064;28;20430;-53
2021/12/07 02:11:01;;;;;;;1.98;1.15;;;15.90;63.50;;;;;;10563587;28;20034;-58
2021/12/07 02:16:02;;;;;;;1.20;0.90;;;15.90;63.50;;;;;;10564702;28;20072;-53
2021/12/07 02:21:32;;;;;;;1.67;1.05;;;16.00;63.40;;;;;;10582227;28;20110;-53
2021/12/07 02:26:33;;;;;;;1.75;1.00;;;15.90;63.50;;;;;;10550642;28;20039;-54
2021/12/07 02:31:35;;;;;;;2.00;1.02;;;15.90;63.50;;;;;;10563429;28;20028;-53
2021/12/07 02:36:36;;;;;;;1.55;0.95;;;15.90;63.50;;;;;;10563606;28;20111;-54
2021/12/07 02:41:38;;;;;;;2.15;0.80;;;15.90;63.40;;;;;;10546266;28;20019;-54
2021/12/07 02:46:39;;;;;;;2.08;1.17;;;15.90;63.40;;;;;;10561967;28;20047;-53
2021/12/07 02:51:40;;;;;;;1.60;1.02;;;15.90;63.50;;;;;;10562724;28;20028;-54
2021/12/07 02:56:42;;;;;;;1.67;1.00;;;15.90;63.60;;;;;;10562961;28;20019;-51
2021/12/07 03:01:49;;;;;;;1.60;1.02;;;15.90;63.40;;;;;;10562486;28;20023;-53
2021/12/07 03:07:08;;;;;;;2.03;1.13;;;16.00;63.30;;;;;;10580501;28;20026;-55
2021/12/07 03:28:09;;;;;;;2.67;1.10;;;16.00;63.10;;;;;;10579853;28;20036;-55
2021/12/07 03:33:10;;;;;;;1.83;1.20;;;16.00;63.00;;;;;;10579508;28;20031;-54
2021/12/07 03:38:11;;;;;;;1.70;1.00;;;15.90;63.00;;;;;;10578530;28;20047;-54
2021/12/07 03:43:14;;;;;;;1.58;1.00;;;15.90;63.00;;;;;;10547315;28;20387;-54
2021/12/07 03:48:16;;;;;;;1.40;0.90;;;16.00;62.90;;;;;;10561179;28;20039;-54
2021/12/07 03:53:16;;;;;;;1.65;1.10;;;16.00;62.80;;;;;;10560787;28;20093;-54
2021/12/07 03:58:17;;;;;;;3.33;1.27;;;16.00;62.80;;;;;;10560748;28;20105;-53
2021/12/07 04:03:19;;;;;;;1.33;0.95;;;16.10;62.60;;;;;;10578706;28;20068;-54
2021/12/07 04:08:26;;;;;;;1.80;1.00;;;16.10;62.50;;;;;;10560433;28;20030;-55
2021/12/07 04:13:27;;;;;;;2.10;0.98;;;16.10;62.50;;;;;;10560447;28;20097;-55
2021/12/07 04:18:28;;;;;;;1.63;0.85;;;16.10;62.40;;;;;;10578259;28;20032;-55
2021/12/07 04:23:31;;;;;;;2.15;1.20;;;16.10;62.50;;;;;;10577635;28;20032;-54
2021/12/07 04:28:34;;;;;;;2.58;0.82;;;16.10;62.60;;;;;;10560122;28;20126;-54
2021/12/07 04:33:35;;;;;;;1.58;0.73;;;16.10;62.50;;;;;;10565469;28;20433;-54
2021/12/07 04:38:37;;;;;;;1.75;0.85;;;16.10;62.50;;;;;;10568158;28;20510;-54
2021/12/07 04:43:40;;;;;;;1.58;0.80;;;16.10;62.60;;;;;;10586234;28;20107;-55
2021/12/07 04:59:19;;;;;;;3.05;0.70;;;16.10;62.50;;;;;;10585806;28;20048;-55
2021/12/07 05:04:25;;;;;;;1.40;0.75;;;16.10;62.30;;;;;;10585070;28;20031;-52
2021/12/07 05:14:32;;;;;;;3.60;1.00;;;16.10;62.50;;;;;;10567188;28;20032;-54
2021/12/07 05:40:35;;;;;;;2.00;0.80;;;16.10;62.40;;;;;;10579947;28;20429;-54
2021/12/07 05:45:39;;;;;;;2.88;1.42;;;16.20;62.10;;;;;;10583067;28;20048;-55
2021/12/07 05:50:41;;;;;;;3.40;0.82;;;16.30;62.20;;;;;;10566283;28;20031;-54
2021/12/07 05:55:42;;;;;;;2.15;1.00;;;16.50;61.60;;;;;;10565874;28;20050;-55
2021/12/07 06:00:45;;;;;;;6.25;1.55;;;16.70;61.20;;;;;;10558497;28;20031;-54
2021/12/07 06:05:46;;;;;;;3.85;0.98;;;16.80;62.50;;;;;;10566198;28;20062;-55
2021/12/07 06:10:47;;;;;;;2.85;0.80;;;17.00;63.30;;;;;;10585838;28;20519;-55
2021/12/07 06:15:48;;;;;;;3.72;1.30;;;17.20;62.70;;;;;;10548748;28;20019;-56
2021/12/07 06:20:50;;;;;;;4.57;1.15;;;17.20;64.10;;;;;;10583316;28;20027;-55
2021/12/07 06:25:51;;;;;;;5.72;2.15;;;17.20;64.10;;;;;;10564850;28;20040;-56
2021/12/07 06:30:53;;;;;;;11.18;1.77;;;17.10;63.40;;;;;;10557158;28;20031;-56
2021/12/07 06:35:58;;;;;;;5.43;1.83;;;17.10;63.00;;;;;;10564633;28;20059;-55
2021/12/07 06:41:01;;;;;;;8.00;1.65;;;17.10;62.70;;;;;;10561308;28;20122;-56
2021/12/07 06:46:02;;;;;;;6.00;1.50;;;17.00;62.60;;;;;;10562869;28;20050;-56
2021/12/07 06:51:04;;;;;;;6.57;1.45;;;17.00;62.50;;;;;;10577822;28;20032;-55
2021/12/07 06:56:10;;;;;;;6.63;1.00;;;16.90;62.30;;;;;;10563467;28;20127;-55
2021/12/07 07:01:11;;;;;;;6.03;1.13;;;17.00;62.00;;;;;;10581796;28;20451;-55
2021/12/07 07:06:12;;;;;;;12.07;1.33;;;17.00;61.70;;;;;;10551792;28;20502;-54
2021/12/07 07:11:13;;;;;;;11.20;1.33;;;17.00;62.10;;;;;;10580632;28;20031;-55
2021/12/07 07:16:14;;;;;;;7.28;1.10;;;17.20;62.10;;;;;;10573102;28;20024;-55
2021/12/07 07:21:16;;;;;;;8.43;1.40;;;17.30;61.80;;;;;;10580309;28;20042;-56
2021/12/07 07:26:16;;;;;;;8.63;1.67;;;17.30;62.40;;;;;;10562098;28;20035;-55
2021/12/07 07:31:17;;;;;;;4.90;1.00;;;17.30;61.00;;;;;;10578134;28;20042;-56
2021/12/07 07:36:18;;;;;;;3.78;1.45;;;17.40;60.50;;;;;;10557510;28;20031;-55
2021/12/07 07:41:19;;;;;;;4.65;1.27;;;17.50;60.30;;;;;;10564461;28;20027;-56
2021/12/07 07:46:19;;;;;;;3.08;1.80;;;17.50;60.20;;;;;;10558460;28;20484;-55
2021/12/07 07:51:20;;;;;;;4.90;1.00;;;17.60;60.20;;;;;;10539440;28;20028;-54
2021/12/07 07:56:21;;;;;;;4.97;1.10;;;17.60;60.10;;;;;;10536882;28;20031;-54
2021/12/07 08:01:23;;;;;;;4.47;1.67;;;17.60;60.00;;;;;;10574287;28;20034;-53
2021/12/07 08:06:24;;;;;;;3.70;1.08;;;17.60;60.20;;;;;;10574293;28;20102;-55
2021/12/07 08:11:25;;;;;;;4.40;1.10;;;17.60;60.20;;;;;;10559544;28;20119;-55
2021/12/07 08:16:27;;;;;;;5.72;1.88;;;17.60;60.30;;;;;;10559536;28;20024;-54
2021/12/07 08:21:28;;;;;;;4.00;1.20;;;17.60;60.50;;;;;;10559721;28;20076;-53
2021/12/07 08:26:29;;;;;;;4.97;0.90;;;17.60;60.20;;;;;;10559371;28;20031;-56
2021/12/07 08:31:30;;;;;;;3.30;1.17;;;17.60;60.20;;;;;;10559457;28;20376;-56
2021/12/07 08:36:31;;;;;;;4.70;1.10;;;17.60;60.00;;;;;;10577420;28;20054;-55
2021/12/07 08:41:32;;;;;;;2.85;0.80;;;17.60;60.10;;;;;;10545402;28;20386;-55
2021/12/07 08:46:33;;;;;;;1.80;0.95;;;17.60;59.90;;;;;;10558893;28;20097;-55
2021/12/07 08:51:34;;;;;;;4.15;1.08;;;17.70;60.00;;;;;;10542368;28;20122;-54
2021/12/07 09:01:55;;;;;;;1.80;0.67;;;17.70;59.80;;;;;;10577439;28;20047;-55
2021/12/07 09:06:56;;;;;;;5.88;1.30;;;17.70;59.80;;;;;;10576854;28;20066;-54
2021/12/07 09:11:56;;;;;;;2.40;1.15;;;17.70;59.70;;;;;;10576491;28;20024;-54
2021/12/07 09:16:57;;;;;;;3.83;0.90;;;17.70;59.80;;;;;;10559314;28;20020;-55
2021/12/07 09:21:59;;;;;;;3.72;0.85;;;17.80;59.70;;;;;;10584063;28;20437;-55
2021/12/07 09:27:00;;;;;;;2.47;0.65;;;17.80;59.70;;;;;;10552749;28;20024;-53
2021/12/07 09:32:01;;;;;;;2.47;1.23;;;17.80;59.60;;;;;;10565394;28;20489;-53
2021/12/07 09:37:02;;;;;;;3.35;0.88;;;17.80;59.60;;;;;;10583361;28;20073;-55
2021/12/07 09:42:03;;;;;;;1.50;0.73;;;17.80;59.50;;;;;;10551678;28;20024;-55
2021/12/07 09:47:04;;;;;;;2.55;0.70;;;17.80;59.50;;;;;;10582793;28;20059;-55
2021/12/07 09:52:06;;;;;;;3.75;1.05;;;;;;;;;;10547434;28;20165;-55
2021/12/07 09:57:07;;;;;;;1.55;0.60;;;18.10;82.30;;;;;;10582606;28;20027;-55
2021/12/07 10:02:08;;;;;;;2.85;0.90;;;17.90;60.00;;;;;;10582388;28;20031;-56
2021/12/07 10:07:08;;;;;;;2.80;0.82;;;17.90;59.40;;;;;;10564390;28;20024;-55
2021/12/07 10:12:22;;;;;;;1.27;0.60;;;17.90;59.30;;;;;;10582090;28;20032;-53
2021/12/07 10:17:23;;;;;;;1.73;0.77;;;17.90;59.30;;;;;;10578550;28;20028;-55
2021/12/07 10:22:24;;;;;;;4.35;1.48;;;18.00;59.30;;;;;;10560278;28;20084;-54
2021/12/07 10:27:44;;;;;;;2.03;1.02;;;18.00;59.20;;;;;;10578385;28;20116;-54
2021/12/07 10:33:04;;;;;;;2.65;0.95;;;18.00;59.10;;;;;;10577513;28;20032;-54
2021/12/07 10:38:15;;;;;;;3.33;1.58;;;18.00;59.20;;;;;;10578008;28;20749;-56
2021/12/07 10:43:16;;;;;;;2.03;0.90;;;18.00;59.20;;;;;;10546286;28;20028;-54
2021/12/07 10:48:23;;;;;;;2.80;0.93;;;18.10;59.20;;;;;;10534123;28;20056;-54
2021/12/07 10:53:32;;;;;;;2.28;0.77;;;18.10;59.30;;;;;;10533671;28;20036;-54
2021/12/07 10:58:33;;;;;;;3.15;0.90;;;18.20;59.20;;;;;;10534957;28;20028;-54
2021/12/07 11:03:34;;;;;;;1.33;0.70;;;18.20;59.30;;;;;;10534871;28;20028;-56
2021/12/07 11:08:35;;;;;;;2.05;0.70;;;18.20;59.40;;;;;;10536260;28;20024;-54
2021/12/07 11:13:37;;;;;;;3.72;0.80;;;18.10;59.50;;;;;;10536283;28;20115;-56
2021/12/07 11:18:42;;;;;;;2.20;0.70;;;18.20;59.70;;;;;;10535817;28;20483;-55
2021/12/07 11:23:57;;;;;;;3.92;0.90;;;18.20;59.60;;;;;;10519030;28;20538;-55
2021/12/07 11:34:39;;;;;;;3.53;0.88;;;18.30;59.50;;;;;;10526511;28;20061;-54
2021/12/07 11:39:49;;;;;;;2.53;0.77;;;18.40;59.20;;;;;;10536385;28;20089;-54
2021/12/07 11:44:53;;;;;;;2.13;0.90;;;18.40;59.20;;;;;;10544440;28;20403;-56
2021/12/07 11:49:55;;;;;;;2.15;0.73;;;18.40;59.40;;;;;;10577712;28;20055;-54
2021/12/07 11:54:56;;;;;;;2.92;0.88;;;18.30;59.30;;;;;;10574335;28;20540;-53
2021/12/07 11:59:57;;;;;;;1.85;0.90;;;18.30;59.30;;;;;;10575942;28;20083;-53
2021/12/07 12:04:57;;;;;;;1.02;0.70;;;18.40;59.30;;;;;;10560271;28;20110;-55
2021/12/07 12:09:58;;;;;;;2.40;0.75;;;18.50;59.10;;;;;;10579056;28;20031;-54
2021/12/07 12:15:31;;;;;;;2.83;0.77;;;18.40;59.10;;;;;;10559276;28;20447;-54
2021/12/07 12:21:06;;;;;;;1.55;0.70;;;18.50;59.10;;;;;;10574487;28;20390;-55
2021/12/07 12:26:11;;;;;;;1.40;0.82;;;18.40;59.20;;;;;;10555721;28;20035;-54
2021/12/07 12:31:13;;;;;;;3.15;0.73;;;18.40;59.20;;;;;;10558623;28;20027;-54
2021/12/07 12:36:15;;;;;;;1.35;0.80;;;18.40;59.20;;;;;;10577439;28;20110;-53
2021/12/07 12:41:16;;;;;;;2.30;0.68;;;18.40;59.10;;;;;;10563660;28;20046;-53
2021/12/07 12:46:27;;;;;;;1.48;0.65;;;18.40;59.20;;;;;;10576768;28;20122;-55
2021/12/07 12:51:45;;;;;;;1.45;0.70;;;18.40;59.00;;;;;;10577813;28;20042;-54
2021/12/07 12:56:46;;;;;;;1.05;0.80;;;18.40;59.10;;;;;;10571344;28;20042;-54
2021/12/07 13:01:47;;;;;;;1.55;0.63;;;18.40;59.10;;;;;;10549677;28;20482;-53
2021/12/07 13:07:23;;;;;;;2.13;0.80;;;18.40;59.20;;;;;;10566581;28;20031;-54
2021/12/07 13:12:34;;;;;;;1.65;0.80;;;18.40;59.00;;;;;;10584380;28;20038;-55
2021/12/07 13:17:42;;;;;;;1.30;0.63;;;18.40;59.00;;;;;;10567727;28;20032;-55
2021/12/07 13:23:03;;;;;;;1.48;0.60;;;18.40;58.90;;;;;;10572212;28;20031;-54
2021/12/07 13:28:13;;;;;;;2.92;1.08;;;18.40;59.00;;;;;;10581809;28;20028;-55
2021/12/07 13:33:52;;;;;;;2.92;0.93;;;18.40;58.80;;;;;;10567859;28;20058;-53
2021/12/07 13:38:53;;;;;;;1.93;0.67;;;18.30;58.50;;;;;;10540998;28;20062;-57
2021/12/07 13:43:56;;;;;;;3.15;1.30;;;18.30;57.70;;;;;;10558308;28;20052;-55
2021/12/07 13:49:13;;;;;;;4.40;1.08;;;18.40;57.40;;;;;;10565285;28;20097;-56
2021/12/07 13:54:18;;;;;;;6.43;1.00;;;18.30;57.30;;;;;;10566885;28;20023;-55
2021/12/07 13:59:26;;;;;;;4.68;1.17;;;18.30;57.50;;;;;;10565637;28;20031;-55
2021/12/07 14:04:29;;;;;;;5.43;1.00;;;18.60;57.40;;;;;;10582357;28;20059;-55
2021/12/07 14:09:31;;;;;;;5.75;1.63;;;18.70;58.00;;;;;;10582879;28;20028;-55
2021/12/07 14:14:32;;;;;;;3.15;1.02;;;18.90;60.70;;;;;;10564015;28;20345;-55
2021/12/07 14:19:32;;;;;;;9.73;3.55;;;18.90;62.60;;;;;;10564446;28;20027;-54
2021/12/07 14:24:33;;;;;;;5.05;1.25;;;19.00;63.10;;;;;;10552131;28;20058;-54
2021/12/07 14:29:34;;;;;;;4.05;1.45;;;19.10;65.60;;;;;;10579666;28;20028;-53
2021/12/07 14:34:35;;;;;;;5.13;1.50;;;19.20;67.90;;;;;;10581850;28;20024;-53
2021/12/07 14:39:41;;;;;;;3.78;1.30;;;19.20;67.00;;;;;;10552377;28;20075;-54
2021/12/07 14:44:49;;;;;;;124.85;96.10;;;19.40;66.80;;;;;;10564102;28;20048;-53
2021/12/07 14:49:55;;;;;;;37.42;25.55;;;19.40;67.40;;;;;;10563566;28;20132;-55
2021/12/07 14:54:58;;;;;;;31.58;21.25;;;19.30;65.60;;;;;;10563091;28;20027;-56
2021/12/07 15:00:02;;;;;;;30.83;19.25;;;19.20;65.30;;;;;;10561989;28;20088;-55
2021/12/07 15:05:09;;;;;;;27.98;17.33;;;19.10;64.80;;;;;;10561392;28;20118;-55
2021/12/07 15:10:14;;;;;;;23.45;15.32;;;19.00;64.10;;;;;;10562366;28;20084;-53
2021/12/07 15:15:16;;;;;;;20.77;15.35;;;18.90;63.70;;;;;;10579571;28;20467;-53
2021/12/07 15:20:17;;;;;;;23.80;15.70;;;18.90;63.60;;;;;;10555159;28;20027;-55
2021/12/07 15:25:18;;;;;;;22.20;14.38;;;18.90;63.60;;;;;;10559636;28;20031;-55
2021/12/07 15:30:19;;;;;;;22.02;13.30;;;18.70;63.00;;;;;;10577442;28;20028;-54
2021/12/07 15:35:26;;;;;;;24.90;13.00;;;18.80;63.30;;;;;;10580009;28;20023;-56
2021/12/07 15:40:27;;;;;;;20.92;12.82;;;18.80;63.10;;;;;;10535787;28;20403;-56
2021/12/07 15:45:28;;;;;;;19.88;11.80;;;18.80;63.10;;;;;;10561410;28;20055;-57
2021/12/07 15:50:29;;;;;;;19.75;11.18;;;18.80;62.70;;;;;;10579982;28;20035;-57
2021/12/07 15:55:34;;;;;;;22.55;12.80;;;18.90;62.50;;;;;;10577199;28;20136;-56
2021/12/07 16:01:01;;;;;;;16.85;10.10;;;19.00;62.10;;;;;;10561790;28;20031;-54
2021/12/07 16:06:13;;;;;;;16.60;9.40;;;19.00;62.00;;;;;;10574928;28;20034;-55
2021/12/07 16:11:20;;;;;;;14.45;9.85;;;19.10;62.10;;;;;;10561830;28;20482;-55
2021/12/07 16:16:24;;;;;;;16.50;9.95;;;19.10;62.20;;;;;;10559118;28;20023;-55
2021/12/07 16:21:30;;;;;;;13.10;9.20;;;19.10;62.20;;;;;;10576521;28;20516;-55
2021/12/07 16:26:31;;;;;;;13.02;9.15;;;19.10;62.50;;;;;;10560205;28;20038;-55
2021/12/07 16:31:34;;;;;;;17.27;9.60;;;19.10;62.70;;;;;;10568722;28;20031;-55
2021/12/07 16:36:35;;;;;;;15.85;9.07;;;19.10;63.20;;;;;;10588113;28;20080;-55
2021/12/07 16:41:36;;;;;;;15.65;9.18;;;19.20;62.50;;;;;;10587519;28;20027;-55
2021/12/07 16:46:37;;;;;;;14.05;8.15;;;19.20;62.20;;;;;;10563404;28;20044;-55
2021/12/07 16:51:38;;;;;;;11.95;8.05;;;19.00;62.00;;;;;;10559105;28;20448;-55
2021/12/07 16:56:39;;;;;;;16.88;8.73;;;18.80;61.80;;;;;;10586498;28;20070;-52
2021/12/07 17:01:40;;;;;;;16.85;7.75;;;18.80;62.20;;;;;;10567567;28;20084;-54
2021/12/07 17:06:41;;;;;;;13.18;7.22;;;18.90;64.80;;;;;;10586419;28;20031;-55
2021/12/07 17:11:44;;;;;;;15.88;7.30;;;18.80;65.40;;;;;;10551217;28;20395;-56
2021/12/07 17:16:45;;;;;;;19.35;6.95;;;18.80;65.10;;;;;;10551133;28;20394;-56
2021/12/07 17:21:45;;;;;;;13.95;6.18;;;18.80;65.10;;;;;;10567745;28;20103;-56
2021/12/07 17:26:50;;;;;;;13.65;6.60;;;18.70;64.80;;;;;;10554568;28;20539;-55
2021/12/07 17:31:51;;;;;;;17.92;8.13;;;18.90;65.40;;;;;;10561951;28;20024;-52
2021/12/07 17:36:52;;;;;;;17.77;5.88;;;19.00;65.40;;;;;;10556324;28;20107;-53
2021/12/07 17:41:52;;;;;;;20.92;6.95;;;19.10;65.80;;;;;;10581913;28;20444;-54
2021/12/07 17:46:54;;;;;;;15.38;5.53;;;19.00;65.50;;;;;;10584546;28;20047;-53
2021/12/07 17:51:55;;;;;;;16.67;5.05;;;19.10;65.00;;;;;;10566043;28;20128;-53
2021/12/07 17:56:56;;;;;;;10.65;4.40;;;19.00;64.80;;;;;;10584252;28;20101;-54
2021/12/07 18:01:58;;;;;;;15.23;5.07;;;18.90;64.70;;;;;;10565648;28;20028;-54
2021/12/07 18:07:00;;;;;;;16.67;5.18;;;18.80;64.50;;;;;;10565823;28;20028;-55
2021/12/07 18:12:00;;;;;;;12.57;4.25;;;18.80;64.40;;;;;;10564220;28;20407;-54
2021/12/07 18:17:01;;;;;;;14.18;5.50;;;18.80;64.40;;;;;;10582860;28;20038;-54
2021/12/07 18:22:02;;;;;;;8.75;4.30;;;18.70;64.50;;;;;;10583027;28;20122;-54
2021/12/07 18:27:03;;;;;;;15.77;4.82;;;18.60;64.70;;;;;;10583231;28;20035;-55
2021/12/07 18:32:05;;;;;;;10.32;5.07;;;18.70;64.50;;;;;;10578402;28;20116;-54
2021/12/07 18:37:05;;;;;;;18.42;4.00;;;18.60;64.40;;;;;;10552517;28;20102;-56
2021/12/07 18:42:08;;;;;;;8.60;3.30;;;18.50;63.80;;;;;;10581228;28;20531;-55
2021/12/07 18:47:09;;;;;;;12.73;4.05;;;18.70;64.00;;;;;;10561423;28;20092;-56
2021/12/07 18:52:10;;;;;;;7.78;3.10;;;18.70;63.50;;;;;;10553617;28;20073;-56
2021/12/07 18:57:11;;;;;;;6.30;3.30;;;18.60;63.50;;;;;;10574920;28;20026;-55
2021/12/07 19:02:12;;;;;;;10.52;3.90;;;18.60;63.30;;;;;;10563220;28;20108;-56
2021/12/07 19:07:13;;;;;;;9.07;3.15;;;18.70;63.20;;;;;;10562714;28;20035;-56
2021/12/07 19:12:13;;;;;;;5.85;2.88;;;18.70;63.20;;;;;;10579832;28;20475;-55
2021/12/07 19:17:14;;;;;;;8.05;3.08;;;18.80;63.10;;;;;;10580119;28;20100;-55
2021/12/07 19:22:15;;;;;;;6.75;3.15;;;18.70;63.10;;;;;;10544301;28;20032;-55
2021/12/07 19:27:16;;;;;;;6.85;2.85;;;18.70;63.10;;;;;;10574911;28;20027;-56
2021/12/07 19:32:17;;;;;;;7.93;2.80;;;18.70;63.20;;;;;;10550928;28;20052;-50
2021/12/07 19:37:18;;;;;;;10.05;3.25;;;18.70;63.20;;;;;;10579744;28;20023;-52
2021/12/07 19:42:19;;;;;;;7.30;2.55;;;18.60;63.40;;;;;;10561540;28;20028;-53
2021/12/07 19:47:20;;;;;;;10.30;2.55;;;18.70;63.30;;;;;;10560773;28;20478;-46
2021/12/07 19:52:21;;;;;;;10.23;2.72;;;18.60;63.50;;;;;;10560155;28;20081;-52
2021/12/07 19:57:21;;;;;;;6.57;2.72;;;18.70;63.40;;;;;;10578836;28;20423;-48
2021/12/07 20:02:22;;;;;;;7.38;2.80;;;18.60;63.50;;;;;;10577957;28;20540;-48
2021/12/07 20:07:23;;;;;;;4.97;2.80;;;18.60;63.40;;;;;;10544216;28;20054;-50
2021/12/07 20:12:24;;;;;;;5.85;2.55;;;18.60;63.40;;;;;;10578672;28;20474;-49
2021/12/07 20:17:25;;;;;;;7.07;2.47;;;18.50;63.80;;;;;;10578403;28;20039;-49
2021/12/07 20:22:26;;;;;;;4.40;2.70;;;18.40;64.10;;;;;;10577858;28;20023;-51
2021/12/07 20:27:27;;;;;;;5.15;2.20;;;18.30;64.50;;;;;;10560397;28;20104;-52
2021/12/07 20:32:27;;;;;;;7.43;2.28;;;18.10;64.70;;;;;;10557307;28;20556;-53
2021/12/07 20:37:30;;;;;;;5.57;2.22;;;18.00;65.10;;;;;;10560737;28;20044;-53
2021/12/07 20:42:31;;;;;;;8.50;2.50;;;17.90;64.90;;;;;;10557411;28;20095;-55
2021/12/07 20:47:32;;;;;;;5.72;2.65;;;17.70;65.20;;;;;;10577354;28;20088;-50
2021/12/07 20:52:33;;;;;;;7.53;2.25;;;17.60;65.60;;;;;;10575465;28;20524;-50
2021/12/07 20:57:33;;;;;;;3.47;2.40;;;17.60;65.60;;;;;;10557801;28;20332;-51
2021/12/07 21:02:34;;;;;;;3.78;2.05;;;17.50;65.70;;;;;;10556511;28;20035;-54
2021/12/07 21:07:36;;;;;;;4.35;1.67;;;17.40;65.80;;;;;;10538501;28;20039;-52
2021/12/07 21:12:37;;;;;;;5.80;2.78;;;17.30;65.90;;;;;;10554818;28;20434;-51
2021/12/07 21:17:38;;;;;;;8.23;2.85;;;17.30;66.10;;;;;;10564368;28;20078;-49
2021/12/07 21:22:39;;;;;;;7.10;1.80;;;17.20;66.10;;;;;;10548415;28;20027;-52
2021/12/07 21:27:40;;;;;;;5.18;1.60;;;17.10;66.10;;;;;;10583674;28;20099;-48
2021/12/07 21:32:42;;;;;;;4.07;2.17;;;17.10;66.30;;;;;;10564638;28;20038;-49
2021/12/07 21:37:43;;;;;;;4.03;1.42;;;17.00;66.30;;;;;;10552005;28;20022;-49
2021/12/07 21:42:44;;;;;;;4.65;1.60;;;17.00;66.40;;;;;;10583133;28;20024;-54
2021/12/07 21:47:45;;;;;;;3.97;1.83;;;16.90;66.40;;;;;;10563583;28;20108;-53
2021/12/07 21:52:46;;;;;;;2.63;1.42;;;16.90;66.50;;;;;;10564086;28;20547;-50
2021/12/07 21:57:47;;;;;;;4.47;2.13;;;16.90;66.50;;;;;;10549612;28;20083;-50
2021/12/07 22:02:49;;;;;;;3.38;1.50;;;16.80;66.50;;;;;;10564561;28;20039;-50
2021/12/07 22:07:50;;;;;;;3.53;1.42;;;16.80;66.60;;;;;;10563899;28;20020;-53
2021/12/07 22:12:52;;;;;;;2.20;1.42;;;16.70;66.60;;;;;;10582426;28;20028;-49
2021/12/07 22:17:53;;;;;;;3.13;1.73;;;16.60;66.60;;;;;;10581672;28;20031;-51
2021/12/07 22:22:54;;;;;;;3.80;1.85;;;16.70;67.10;;;;;;10562468;28;20023;-49
2021/12/07 22:27:55;;;;;;;4.00;1.60;;;16.60;66.70;;;;;;10561804;28;20399;-50
2021/12/07 22:32:56;;;;;;;4.00;1.60;;;16.50;66.50;;;;;;10580895;28;20499;-50
2021/12/07 22:37:57;;;;;;;3.92;1.95;;;16.50;66.60;;;;;;10548920;28;20027;-53
2021/12/07 22:42:57;;;;;;;2.88;1.85;;;16.50;66.50;;;;;;10580504;28;20491;-52
2021/12/07 22:47:59;;;;;;;3.38;1.58;;;16.50;66.50;;;;;;10562094;28;20044;-53
2021/12/07 22:53:01;;;;;;;3.85;1.52;;;16.40;66.60;;;;;;10560933;28;20043;-52
2021/12/07 22:58:02;;;;;;;2.83;1.48;;;16.40;66.60;;;;;;10561688;28;20031;-52
2021/12/07 23:03:08;;;;;;;2.42;1.35;;;16.40;66.70;;;;;;10541936;28;20023;-49
2021/12/07 23:08:13;;;;;;;4.22;1.75;;;16.30;66.60;;;;;;10579971;28;20034;-48
2021/12/07 23:13:15;;;;;;;3.17;1.45;;;16.30;66.70;;;;;;10579323;28;20035;-53
2021/12/07 23:18:22;;;;;;;2.45;1.33;;;16.30;66.60;;;;;;10561389;28;20055;-49
2021/12/07 23:23:25;;;;;;;3.88;1.40;;;16.30;66.60;;;;;;10579377;28;20034;-53
2021/12/07 23:28:29;;;;;;;3.25;1.58;;;16.30;66.50;;;;;;10560815;28;20118;-48
2021/12/07 23:33:31;;;;;;;2.65;1.67;;;16.20;66.60;;;;;;10546919;28;20157;-50
2021/12/07 23:38:32;;;;;;;2.97;1.63;;;16.20;66.50;;;;;;10555898;28;20531;-53
2021/12/07 23:43:33;;;;;;;3.80;1.73;;;16.20;66.60;;;;;;10559808;28;21050;-51
2021/12/07 23:48:34;;;;;;;2.38;1.40;;;16.20;66.60;;;;;;10578188;28;20300;-52
2021/12/07 23:53:36;;;;;;;3.08;1.40;;;16.10;66.50;;;;;;10554381;28;20019;-52
2021/12/07 23:58:39;;;;;;;3.13;1.50;;;16.10;66.40;;;;;;10560115;28;20269;-52
